Santa Lucia — A8IP5 — position and weather

sailwx.info

Track history (hours):
 
Tides and Currents Weather Stations Pressure Air Temp Water Temp Dewpoint Dewpoint Depression Visibility Wind Speed Wind Dir Waves Ship Positions

Santa Lucia

Last reported at 2017-Oct-16 15:02 UTC. Time now 2017-Oct-18 09:20 UTC.
Position N 01°14' E 104°03'.

Length 143 m; beam 22 m.

Type: Ship. MMSI: 636091017.

Date/timePositionNaut miles runAvg speedWind from/ knotsBaromVisibWave heightAir tempDewpointWater temp
2017-Oct-16 15:02N 01°14' E 104°03'0 1.3
2017-Oct-16 15:00N 01°14' E 104°03'1 1.1
2017-Oct-16 14:29N 01°14' E 104°03'1 1.1
2017-Oct-16 13:30N 01°14' E 104°02'0 1.0
2017-Oct-16 13:00N 01°14' E 104°01'1 0.9
2017-Oct-16 12:21N 01°14' E 104°01'0 1.1
2017-Oct-16 12:00N 01°14' E 104°00'1 0.9
2017-Oct-16 11:24N 01°14' E 103°60'3 0.3
2017-Oct-16 03:15N 01°14' E 104°03'1 5.6
2017-Oct-16 03:00N 01°14' E 104°01'2 4.7
2017-Oct-16 02:30N 01°14' E 103°59'4 7.4
2017-Oct-16 02:00N 01°13' E 103°55'612.9
2017-Oct-16 01:30N 01°10' E 103°50'713.4
2017-Oct-16 01:00N 01°06' E 103°44'714.0
2017-Oct-16 00:30N 01°02' E 103°38'917.9
2017-Oct-16 00:00N 01°07' E 103°31'918.6
2017-Oct-15 23:30N 01°12' E 103°23'918.1
2017-Oct-15 22:59N 01°18' E 103°16'  
Track history (hours):
 
Tides and Currents Weather Stations Pressure Air Temp Water Temp Dewpoint Dewpoint Depression Visibility Wind Speed Wind Dir Waves Ship Positions

Santa Lucia

Last reported at 2017-Oct-16 15:02 UTC. Time now 2017-Oct-18 09:20 UTC.
Position N 01°14' E 104°03'.

Length 143 m; beam 22 m.

Type: Ship. MMSI: 636091017.

Date/timePositionNaut miles runAvg speedWind from/ knotsBaromVisibWave heightAir tempDewpointWater temp
2017-Oct-16 15:02N 01°14' E 104°03'0 1.3
2017-Oct-16 15:00N 01°14' E 104°03'1 1.1
2017-Oct-16 14:29N 01°14' E 104°03'1 1.1
2017-Oct-16 13:30N 01°14' E 104°02'0 1.0
2017-Oct-16 13:00N 01°14' E 104°01'1 0.9
2017-Oct-16 12:21N 01°14' E 104°01'0 1.1
2017-Oct-16 12:00N 01°14' E 104°00'1 0.9
2017-Oct-16 11:24N 01°14' E 103°60'3 0.3
2017-Oct-16 03:15N 01°14' E 104°03'1 5.6
2017-Oct-16 03:00N 01°14' E 104°01'2 4.7
2017-Oct-16 02:30N 01°14' E 103°59'4 7.4
2017-Oct-16 02:00N 01°13' E 103°55'612.9
2017-Oct-16 01:30N 01°10' E 103°50'713.4
2017-Oct-16 01:00N 01°06' E 103°44'714.0
2017-Oct-16 00:30N 01°02' E 103°38'917.9
2017-Oct-16 00:00N 01°07' E 103°31'918.6
2017-Oct-15 23:30N 01°12' E 103°23'918.1
2017-Oct-15 22:59N 01°18' E 103°16'  

Dump ship's entire track history